sensor_id;sensor_type;location;lat;lon;timestamp;P1;durP1;ratioP1;P2;durP2;ratioP2
64063;SDS011;50314;50.618;10.642;2023-02-28T00:00:38;1.85;;;1.10;;
64063;SDS011;50314;50.618;10.642;2023-02-28T00:03:04;1.75;;;1.17;;
64063;SDS011;50314;50.618;10.642;2023-02-28T00:05:29;2.00;;;1.10;;
64063;SDS011;50314;50.618;10.642;2023-02-28T00:07:55;2.15;;;1.23;;
64063;SDS011;50314;50.618;10.642;2023-02-28T00:10:22;2.75;;;1.02;;
64063;SDS011;50314;50.618;10.642;2023-02-28T00:12:52;1.73;;;1.00;;
64063;SDS011;50314;50.618;10.642;2023-02-28T00:15:19;1.73;;;1.02;;
64063;SDS011;50314;50.618;10.642;2023-02-28T00:17:46;1.88;;;1.02;;
64063;SDS011;50314;50.618;10.642;2023-02-28T00:20:12;1.42;;;1.02;;
64063;SDS011;50314;50.618;10.642;2023-02-28T00:22:39;2.42;;;1.20;;
64063;SDS011;50314;50.618;10.642;2023-02-28T00:25:10;1.35;;;1.08;;
64063;SDS011;50314;50.618;10.642;2023-02-28T00:27:38;2.00;;;1.15;;
64063;SDS011;50314;50.618;10.642;2023-02-28T00:30:05;1.70;;;1.10;;
64063;SDS011;50314;50.618;10.642;2023-02-28T00:32:32;1.58;;;1.25;;
64063;SDS011;50314;50.618;10.642;2023-02-28T00:34:59;1.13;;;1.00;;
64063;SDS011;50314;50.618;10.642;2023-02-28T00:37:25;2.30;;;1.15;;
64063;SDS011;50314;50.618;10.642;2023-02-28T00:39:50;1.55;;;1.00;;
64063;SDS011;50314;50.618;10.642;2023-02-28T00:42:16;1.25;;;0.90;;
64063;SDS011;50314;50.618;10.642;2023-02-28T00:44:41;1.17;;;0.80;;
64063;SDS011;50314;50.618;10.642;2023-02-28T00:47:07;2.10;;;1.08;;
64063;SDS011;50314;50.618;10.642;2023-02-28T00:49:32;1.98;;;1.02;;
64063;SDS011;50314;50.618;10.642;2023-02-28T00:51:58;2.10;;;1.00;;
64063;SDS011;50314;50.618;10.642;2023-02-28T00:54:23;2.42;;;1.00;;
64063;SDS011;50314;50.618;10.642;2023-02-28T00:56:49;2.08;;;1.10;;
64063;SDS011;50314;50.618;10.642;2023-02-28T00:59:15;2.50;;;1.05;;
64063;SDS011;50314;50.618;10.642;2023-02-28T01:01:42;1.33;;;0.82;;
64063;SDS011;50314;50.618;10.642;2023-02-28T01:06:35;3.00;;;1.63;;
64063;SDS011;50314;50.618;10.642;2023-02-28T01:09:01;1.60;;;1.02;;
64063;SDS011;50314;50.618;10.642;2023-02-28T01:11:28;2.03;;;1.20;;
64063;SDS011;50314;50.618;10.642;2023-02-28T01:13:53;1.98;;;1.05;;
64063;SDS011;50314;50.618;10.642;2023-02-28T01:16:19;2.03;;;1.00;;
64063;SDS011;50314;50.618;10.642;2023-02-28T01:18:44;2.65;;;1.08;;
64063;SDS011;50314;50.618;10.642;2023-02-28T01:21:14;2.00;;;0.93;;
64063;SDS011;50314;50.618;10.642;2023-02-28T01:23:42;1.98;;;1.13;;
64063;SDS011;50314;50.618;10.642;2023-02-28T01:26:08;1.67;;;0.98;;
64063;SDS011;50314;50.618;10.642;2023-02-28T01:28:44;1.35;;;0.82;;
64063;SDS011;50314;50.618;10.642;2023-02-28T01:31:10;2.00;;;1.10;;
64063;SDS011;50314;50.618;10.642;2023-02-28T01:33:36;1.25;;;0.77;;
64063;SDS011;50314;50.618;10.642;2023-02-28T01:36:03;0.85;;;0.70;;
64063;SDS011;50314;50.618;10.642;2023-02-28T01:38:31;1.33;;;0.80;;
64063;SDS011;50314;50.618;10.642;2023-02-28T01:40:57;1.55;;;1.00;;
64063;SDS011;50314;50.618;10.642;2023-02-28T01:45:53;1.83;;;1.27;;
64063;SDS011;50314;50.618;10.642;2023-02-28T01:48:21;1.15;;;0.90;;
64063;SDS011;50314;50.618;10.642;2023-02-28T01:50:51;2.15;;;0.80;;
64063;SDS011;50314;50.618;10.642;2023-02-28T01:53:18;1.75;;;1.00;;
64063;SDS011;50314;50.618;10.642;2023-02-28T01:55:48;1.30;;;1.00;;
64063;SDS011;50314;50.618;10.642;2023-02-28T01:58:17;1.25;;;0.82;;
64063;SDS011;50314;50.618;10.642;2023-02-28T02:00:42;1.52;;;0.98;;
64063;SDS011;50314;50.618;10.642;2023-02-28T02:03:08;1.88;;;1.15;;
64063;SDS011;50314;50.618;10.642;2023-02-28T02:05:38;1.00;;;0.90;;
64063;SDS011;50314;50.618;10.642;2023-02-28T02:08:05;1.10;;;1.00;;
64063;SDS011;50314;50.618;10.642;2023-02-28T02:10:39;1.02;;;0.90;;
64063;SDS011;50314;50.618;10.642;2023-02-28T02:13:10;1.42;;;0.82;;
64063;SDS011;50314;50.618;10.642;2023-02-28T02:18:23;1.00;;;0.85;;
64063;SDS011;50314;50.618;10.642;2023-02-28T02:23:30;1.63;;;0.88;;
64063;SDS011;50314;50.618;10.642;2023-02-28T02:29:26;1.27;;;0.80;;
64063;SDS011;50314;50.618;10.642;2023-02-28T02:40:34;0.77;;;0.77;;
64063;SDS011;50314;50.618;10.642;2023-02-28T02:45:45;1.52;;;0.70;;
64063;SDS011;50314;50.618;10.642;2023-02-28T02:48:19;1.10;;;0.93;;
64063;SDS011;50314;50.618;10.642;2023-02-28T02:50:50;1.25;;;0.80;;
64063;SDS011;50314;50.618;10.642;2023-02-28T02:53:21;1.08;;;0.88;;
64063;SDS011;50314;50.618;10.642;2023-02-28T02:55:52;0.93;;;0.80;;
64063;SDS011;50314;50.618;10.642;2023-02-28T02:58:20;2.67;;;1.23;;
64063;SDS011;50314;50.618;10.642;2023-02-28T03:00:53;0.93;;;0.93;;
64063;SDS011;50314;50.618;10.642;2023-02-28T03:03:23;1.05;;;0.90;;
64063;SDS011;50314;50.618;10.642;2023-02-28T03:05:54;1.48;;;0.80;;
64063;SDS011;50314;50.618;10.642;2023-02-28T03:08:21;1.73;;;1.30;;
64063;SDS011;50314;50.618;10.642;2023-02-28T03:10:51;1.67;;;0.98;;
64063;SDS011;50314;50.618;10.642;2023-02-28T03:18:25;1.00;;;0.90;;
64063;SDS011;50314;50.618;10.642;2023-02-28T03:21:20;2.47;;;1.23;;
64063;SDS011;50314;50.618;10.642;2023-02-28T03:26:30;0.70;;;0.70;;
64063;SDS011;50314;50.618;10.642;2023-02-28T03:29:07;1.23;;;0.85;;
64063;SDS011;50314;50.618;10.642;2023-02-28T03:34:54;1.15;;;0.90;;
64063;SDS011;50314;50.618;10.642;2023-02-28T03:37:38;1.52;;;0.95;;
64063;SDS011;50314;50.618;10.642;2023-02-28T03:40:14;1.70;;;1.30;;
64063;SDS011;50314;50.618;10.642;2023-02-28T03:42:45;1.67;;;1.00;;
64063;SDS011;50314;50.618;10.642;2023-02-28T03:45:19;0.98;;;0.80;;
64063;SDS011;50314;50.618;10.642;2023-02-28T03:50:37;0.80;;;0.80;;
64063;SDS011;50314;50.618;10.642;2023-02-28T03:53:12;1.33;;;0.90;;
64063;SDS011;50314;50.618;10.642;2023-02-28T03:56:02;2.00;;;1.33;;
64063;SDS011;50314;50.618;10.642;2023-02-28T03:58:42;1.77;;;0.93;;
64063;SDS011;50314;50.618;10.642;2023-02-28T04:03:45;1.40;;;1.30;;
64063;SDS011;50314;50.618;10.642;2023-02-28T04:06:20;1.00;;;0.90;;
64063;SDS011;50314;50.618;10.642;2023-02-28T04:08:48;0.95;;;0.88;;
64063;SDS011;50314;50.618;10.642;2023-02-28T04:13:42;1.10;;;0.90;;
64063;SDS011;50314;50.618;10.642;2023-02-28T04:16:08;0.95;;;0.73;;
64063;SDS011;50314;50.618;10.642;2023-02-28T04:18:40;1.40;;;1.00;;
64063;SDS011;50314;50.618;10.642;2023-02-28T04:21:06;0.82;;;0.73;;
64063;SDS011;50314;50.618;10.642;2023-02-28T04:23:32;1.33;;;1.20;;
64063;SDS011;50314;50.618;10.642;2023-02-28T04:25:58;1.20;;;0.88;;
64063;SDS011;50314;50.618;10.642;2023-02-28T04:28:23;1.60;;;1.20;;
64063;SDS011;50314;50.618;10.642;2023-02-28T04:30:56;1.75;;;0.82;;
64063;SDS011;50314;50.618;10.642;2023-02-28T04:33:23;1.10;;;1.00;;
64063;SDS011;50314;50.618;10.642;2023-02-28T04:35:57;1.92;;;1.00;;
64063;SDS011;50314;50.618;10.642;2023-02-28T04:38:27;0.80;;;0.80;;
64063;SDS011;50314;50.618;10.642;2023-02-28T04:40:53;1.80;;;0.98;;
64063;SDS011;50314;50.618;10.642;2023-02-28T04:43:22;1.00;;;0.90;;
64063;SDS011;50314;50.618;10.642;2023-02-28T04:45:47;1.58;;;1.02;;
64063;SDS011;50314;50.618;10.642;2023-02-28T04:48:13;1.08;;;0.98;;
64063;SDS011;50314;50.618;10.642;2023-02-28T04:50:38;1.08;;;0.98;;
64063;SDS011;50314;50.618;10.642;2023-02-28T04:53:03;0.70;;;0.70;;
64063;SDS011;50314;50.618;10.642;2023-02-28T04:55:29;0.85;;;0.80;;
64063;SDS011;50314;50.618;10.642;2023-02-28T04:57:54;0.85;;;0.85;;
64063;SDS011;50314;50.618;10.642;2023-02-28T05:00:20;0.80;;;0.80;;
64063;SDS011;50314;50.618;10.642;2023-02-28T05:02:45;1.13;;;0.85;;
64063;SDS011;50314;50.618;10.642;2023-02-28T05:05:11;1.45;;;0.98;;
64063;SDS011;50314;50.618;10.642;2023-02-28T05:07:43;1.15;;;0.90;;
64063;SDS011;50314;50.618;10.642;2023-02-28T05:10:09;1.40;;;1.30;;
64063;SDS011;50314;50.618;10.642;2023-02-28T05:12:35;1.02;;;0.82;;
64063;SDS011;50314;50.618;10.642;2023-02-28T05:15:00;1.00;;;0.85;;
64063;SDS011;50314;50.618;10.642;2023-02-28T05:17:27;1.15;;;0.98;;
64063;SDS011;50314;50.618;10.642;2023-02-28T05:19:53;1.50;;;1.15;;
64063;SDS011;50314;50.618;10.642;2023-02-28T05:22:18;1.83;;;1.05;;
64063;SDS011;50314;50.618;10.642;2023-02-28T05:24:43;1.30;;;1.20;;
64063;SDS011;50314;50.618;10.642;2023-02-28T05:27:09;1.10;;;1.00;;
64063;SDS011;50314;50.618;10.642;2023-02-28T05:29:35;1.83;;;0.90;;
64063;SDS011;50314;50.618;10.642;2023-02-28T05:32:07;1.33;;;0.80;;
64063;SDS011;50314;50.618;10.642;2023-02-28T05:34:34;1.75;;;1.13;;
64063;SDS011;50314;50.618;10.642;2023-02-28T05:37:01;1.15;;;0.90;;
64063;SDS011;50314;50.618;10.642;2023-02-28T05:39:26;1.42;;;0.90;;
64063;SDS011;50314;50.618;10.642;2023-02-28T05:41:52;1.85;;;1.00;;
64063;SDS011;50314;50.618;10.642;2023-02-28T05:44:17;1.52;;;0.90;;
64063;SDS011;50314;50.618;10.642;2023-02-28T05:46:43;0.77;;;0.77;;
64063;SDS011;50314;50.618;10.642;2023-02-28T05:49:08;1.15;;;1.00;;
64063;SDS011;50314;50.618;10.642;2023-02-28T05:51:33;1.58;;;0.90;;
64063;SDS011;50314;50.618;10.642;2023-02-28T05:56:27;0.88;;;0.88;;
64063;SDS011;50314;50.618;10.642;2023-02-28T05:58:53;1.08;;;0.93;;
64063;SDS011;50314;50.618;10.642;2023-02-28T06:01:51;1.25;;;1.02;;
64063;SDS011;50314;50.618;10.642;2023-02-28T06:04:13;1.33;;;1.00;;
64063;SDS011;50314;50.618;10.642;2023-02-28T06:06:43;2.40;;;1.10;;
64063;SDS011;50314;50.618;10.642;2023-02-28T06:09:09;1.38;;;0.90;;
64063;SDS011;50314;50.618;10.642;2023-02-28T06:11:35;1.05;;;0.98;;
64063;SDS011;50314;50.618;10.642;2023-02-28T06:14:01;1.27;;;1.00;;
64063;SDS011;50314;50.618;10.642;2023-02-28T06:16:27;1.23;;;0.93;;
64063;SDS011;50314;50.618;10.642;2023-02-28T06:18:54;1.40;;;1.10;;
64063;SDS011;50314;50.618;10.642;2023-02-28T06:21:21;1.20;;;1.00;;
64063;SDS011;50314;50.618;10.642;2023-02-28T06:23:47;1.42;;;1.00;;
64063;SDS011;50314;50.618;10.642;2023-02-28T06:26:13;1.52;;;1.08;;
64063;SDS011;50314;50.618;10.642;2023-02-28T06:28:38;1.42;;;1.00;;
64063;SDS011;50314;50.618;10.642;2023-02-28T06:31:08;1.92;;;1.17;;
64063;SDS011;50314;50.618;10.642;2023-02-28T06:33:35;1.58;;;1.10;;
64063;SDS011;50314;50.618;10.642;2023-02-28T06:36:01;1.98;;;1.42;;
64063;SDS011;50314;50.618;10.642;2023-02-28T06:38:27;1.42;;;1.05;;
64063;SDS011;50314;50.618;10.642;2023-02-28T06:40:54;1.05;;;0.98;;
64063;SDS011;50314;50.618;10.642;2023-02-28T06:43:21;1.55;;;1.10;;
64063;SDS011;50314;50.618;10.642;2023-02-28T06:45:47;3.17;;;1.10;;
64063;SDS011;50314;50.618;10.642;2023-02-28T06:48:13;1.50;;;1.20;;
64063;SDS011;50314;50.618;10.642;2023-02-28T06:50:38;1.45;;;1.10;;
64063;SDS011;50314;50.618;10.642;2023-02-28T06:53:04;1.38;;;1.13;;
64063;SDS011;50314;50.618;10.642;2023-02-28T06:55:29;1.40;;;1.30;;
64063;SDS011;50314;50.618;10.642;2023-02-28T06:57:55;2.45;;;1.10;;
64063;SDS011;50314;50.618;10.642;2023-02-28T07:00:22;1.35;;;1.10;;
64063;SDS011;50314;50.618;10.642;2023-02-28T07:02:47;1.27;;;1.10;;
64063;SDS011;50314;50.618;10.642;2023-02-28T07:05:13;1.30;;;1.20;;
64063;SDS011;50314;50.618;10.642;2023-02-28T07:07:38;2.78;;;1.15;;
64063;SDS011;50314;50.618;10.642;2023-02-28T07:10:09;1.75;;;1.20;;
64063;SDS011;50314;50.618;10.642;2023-02-28T07:12:38;2.20;;;1.23;;
64063;SDS011;50314;50.618;10.642;2023-02-28T07:15:04;2.17;;;1.10;;
64063;SDS011;50314;50.618;10.642;2023-02-28T07:17:30;1.40;;;1.10;;
64063;SDS011;50314;50.618;10.642;2023-02-28T07:19:56;3.03;;;1.30;;
64063;SDS011;50314;50.618;10.642;2023-02-28T07:22:21;1.40;;;1.27;;
64063;SDS011;50314;50.618;10.642;2023-02-28T07:24:47;1.65;;;1.27;;
64063;SDS011;50314;50.618;10.642;2023-02-28T07:27:13;1.73;;;1.20;;
64063;SDS011;50314;50.618;10.642;2023-02-28T07:29:48;2.10;;;1.08;;
64063;SDS011;50314;50.618;10.642;2023-02-28T07:32:17;2.08;;;1.27;;
64063;SDS011;50314;50.618;10.642;2023-02-28T07:34:43;1.63;;;1.23;;
64063;SDS011;50314;50.618;10.642;2023-02-28T07:37:09;2.33;;;1.13;;
64063;SDS011;50314;50.618;10.642;2023-02-28T07:39:34;1.23;;;1.08;;
64063;SDS011;50314;50.618;10.642;2023-02-28T07:42:03;1.83;;;1.10;;
64063;SDS011;50314;50.618;10.642;2023-02-28T07:44:29;3.92;;;1.20;;
64063;SDS011;50314;50.618;10.642;2023-02-28T07:46:55;1.77;;;1.30;;
64063;SDS011;50314;50.618;10.642;2023-02-28T07:49:20;1.77;;;1.25;;
64063;SDS011;50314;50.618;10.642;2023-02-28T07:51:46;1.88;;;1.30;;
64063;SDS011;50314;50.618;10.642;2023-02-28T07:54:11;1.90;;;1.20;;
64063;SDS011;50314;50.618;10.642;2023-02-28T07:56:36;4.30;;;1.50;;
64063;SDS011;50314;50.618;10.642;2023-02-28T07:59:02;1.13;;;1.00;;
64063;SDS011;50314;50.618;10.642;2023-02-28T08:01:27;1.60;;;1.20;;
64063;SDS011;50314;50.618;10.642;2023-02-28T08:03:53;1.70;;;1.15;;
64063;SDS011;50314;50.618;10.642;2023-02-28T08:06:21;1.70;;;1.10;;
64063;SDS011;50314;50.618;10.642;2023-02-28T08:08:48;1.23;;;1.00;;
64063;SDS011;50314;50.618;10.642;2023-02-28T08:11:14;2.42;;;1.05;;
64063;SDS011;50314;50.618;10.642;2023-02-28T08:13:40;1.77;;;1.10;;
64063;SDS011;50314;50.618;10.642;2023-02-28T08:16:07;1.67;;;1.50;;
64063;SDS011;50314;50.618;10.642;2023-02-28T08:18:32;1.48;;;1.20;;
64063;SDS011;50314;50.618;10.642;2023-02-28T08:20:58;2.10;;;1.40;;
64063;SDS011;50314;50.618;10.642;2023-02-28T08:23:24;1.58;;;1.48;;
64063;SDS011;50314;50.618;10.642;2023-02-28T08:25:53;1.08;;;0.98;;
64063;SDS011;50314;50.618;10.642;2023-02-28T08:28:19;1.75;;;1.35;;
64063;SDS011;50314;50.618;10.642;2023-02-28T08:30:45;1.40;;;1.30;;
64063;SDS011;50314;50.618;10.642;2023-02-28T08:33:10;2.05;;;1.30;;
64063;SDS011;50314;50.618;10.642;2023-02-28T08:35:36;2.05;;;1.52;;
64063;SDS011;50314;50.618;10.642;2023-02-28T08:38:02;1.13;;;1.00;;
64063;SDS011;50314;50.618;10.642;2023-02-28T08:40:27;1.48;;;1.38;;
64063;SDS011;50314;50.618;10.642;2023-02-28T08:42:53;1.67;;;1.00;;
64063;SDS011;50314;50.618;10.642;2023-02-28T08:45:18;1.88;;;1.33;;
64063;SDS011;50314;50.618;10.642;2023-02-28T08:47:44;2.35;;;1.30;;
64063;SDS011;50314;50.618;10.642;2023-02-28T08:50:09;1.52;;;1.10;;
64063;SDS011;50314;50.618;10.642;2023-02-28T08:52:35;2.25;;;1.55;;
64063;SDS011;50314;50.618;10.642;2023-02-28T08:55:00;1.17;;;1.02;;
64063;SDS011;50314;50.618;10.642;2023-02-28T08:57:26;1.23;;;0.95;;
64063;SDS011;50314;50.618;10.642;2023-02-28T08:59:52;1.67;;;1.25;;
64063;SDS011;50314;50.618;10.642;2023-02-28T09:02:18;2.03;;;1.20;;
64063;SDS011;50314;50.618;10.642;2023-02-28T09:04:43;2.95;;;1.30;;
64063;SDS011;50314;50.618;10.642;2023-02-28T09:07:11;1.80;;;1.20;;
64063;SDS011;50314;50.618;10.642;2023-02-28T09:09:37;1.40;;;1.25;;
64063;SDS011;50314;50.618;10.642;2023-02-28T09:12:03;1.20;;;1.10;;
64063;SDS011;50314;50.618;10.642;2023-02-28T09:14:30;1.80;;;1.48;;
64063;SDS011;50314;50.618;10.642;2023-02-28T09:16:55;1.63;;;1.17;;
64063;SDS011;50314;50.618;10.642;2023-02-28T09:19:21;1.40;;;1.27;;
64063;SDS011;50314;50.618;10.642;2023-02-28T09:21:47;1.27;;;1.10;;
64063;SDS011;50314;50.618;10.642;2023-02-28T09:24:12;4.55;;;1.40;;
64063;SDS011;50314;50.618;10.642;2023-02-28T09:26:40;1.85;;;1.30;;
64063;SDS011;50314;50.618;10.642;2023-02-28T09:29:05;1.90;;;1.45;;
64063;SDS011;50314;50.618;10.642;2023-02-28T09:31:31;2.30;;;2.03;;
64063;SDS011;50314;50.618;10.642;2023-02-28T09:33:58;2.47;;;1.60;;
64063;SDS011;50314;50.618;10.642;2023-02-28T09:36:24;2.05;;;1.75;;
64063;SDS011;50314;50.618;10.642;2023-02-28T09:38:53;2.97;;;1.45;;
64063;SDS011;50314;50.618;10.642;2023-02-28T09:41:20;2.50;;;1.60;;
64063;SDS011;50314;50.618;10.642;2023-02-28T09:43:56;1.45;;;1.30;;
64063;SDS011;50314;50.618;10.642;2023-02-28T09:48:56;2.67;;;1.42;;
64063;SDS011;50314;50.618;10.642;2023-02-28T09:51:37;2.47;;;1.80;;
64063;SDS011;50314;50.618;10.642;2023-02-28T09:54:04;2.03;;;1.10;;
64063;SDS011;50314;50.618;10.642;2023-02-28T09:56:31;1.90;;;1.45;;
64063;SDS011;50314;50.618;10.642;2023-02-28T09:59:04;2.05;;;1.40;;
64063;SDS011;50314;50.618;10.642;2023-02-28T10:01:45;1.98;;;1.30;;
64063;SDS011;50314;50.618;10.642;2023-02-28T10:04:34;2.10;;;1.35;;
64063;SDS011;50314;50.618;10.642;2023-02-28T10:07:18;1.70;;;1.35;;
64063;SDS011;50314;50.618;10.642;2023-02-28T10:10:02;1.73;;;1.63;;
64063;SDS011;50314;50.618;10.642;2023-02-28T10:12:36;2.30;;;1.60;;
64063;SDS011;50314;50.618;10.642;2023-02-28T10:15:07;2.10;;;1.40;;
64063;SDS011;50314;50.618;10.642;2023-02-28T10:17:42;2.25;;;1.50;;
64063;SDS011;50314;50.618;10.642;2023-02-28T10:20:13;1.88;;;1.40;;
64063;SDS011;50314;50.618;10.642;2023-02-28T10:22:52;1.40;;;1.30;;
64063;SDS011;50314;50.618;10.642;2023-02-28T10:25:37;2.25;;;1.48;;
64063;SDS011;50314;50.618;10.642;2023-02-28T10:28:13;2.30;;;1.70;;
64063;SDS011;50314;50.618;10.642;2023-02-28T10:30:47;2.28;;;1.42;;
64063;SDS011;50314;50.618;10.642;2023-02-28T10:33:17;2.50;;;1.70;;
64063;SDS011;50314;50.618;10.642;2023-02-28T10:35:48;2.15;;;1.33;;
64063;SDS011;50314;50.618;10.642;2023-02-28T10:38:16;1.77;;;1.30;;
64063;SDS011;50314;50.618;10.642;2023-02-28T10:41:10;2.17;;;1.50;;
64063;SDS011;50314;50.618;10.642;2023-02-28T10:43:40;1.92;;;1.50;;
64063;SDS011;50314;50.618;10.642;2023-02-28T10:51:03;1.98;;;1.20;;
64063;SDS011;50314;50.618;10.642;2023-02-28T10:53:32;1.40;;;1.20;;
64063;SDS011;50314;50.618;10.642;2023-02-28T10:56:21;1.38;;;1.23;;
64063;SDS011;50314;50.618;10.642;2023-02-28T10:59:00;2.45;;;1.67;;
64063;SDS011;50314;50.618;10.642;2023-02-28T11:01:41;2.15;;;1.48;;
64063;SDS011;50314;50.618;10.642;2023-02-28T11:06:47;2.67;;;1.60;;
64063;SDS011;50314;50.618;10.642;2023-02-28T11:09:31;2.38;;;1.83;;
64063;SDS011;50314;50.618;10.642;2023-02-28T11:12:00;3.00;;;1.45;;
64063;SDS011;50314;50.618;10.642;2023-02-28T11:14:27;1.92;;;1.40;;
64063;SDS011;50314;50.618;10.642;2023-02-28T11:16:55;2.75;;;1.60;;
64063;SDS011;50314;50.618;10.642;2023-02-28T11:19:27;2.03;;;1.58;;
64063;SDS011;50314;50.618;10.642;2023-02-28T11:22:00;2.15;;;1.30;;
64063;SDS011;50314;50.618;10.642;2023-02-28T11:24:33;2.85;;;1.42;;
64063;SDS011;50314;50.618;10.642;2023-02-28T11:29:28;1.75;;;1.25;;
64063;SDS011;50314;50.618;10.642;2023-02-28T11:34:34;2.47;;;1.40;;
64063;SDS011;50314;50.618;10.642;2023-02-28T11:37:01;2.75;;;1.50;;
64063;SDS011;50314;50.618;10.642;2023-02-28T11:39:30;2.15;;;1.33;;
64063;SDS011;50314;50.618;10.642;2023-02-28T11:49:56;2.03;;;1.40;;
64063;SDS011;50314;50.618;10.642;2023-02-28T11:55:31;2.63;;;1.33;;
64063;SDS011;50314;50.618;10.642;2023-02-28T12:06:25;1.67;;;1.17;;
64063;SDS011;50314;50.618;10.642;2023-02-28T12:11:52;2.40;;;1.30;;
64063;SDS011;50314;50.618;10.642;2023-02-28T12:19:58;1.27;;;1.10;;
64063;SDS011;50314;50.618;10.642;2023-02-28T12:22:43;2.15;;;1.10;;
64063;SDS011;50314;50.618;10.642;2023-02-28T12:28:01;2.13;;;1.48;;
64063;SDS011;50314;50.618;10.642;2023-02-28T12:30:28;1.90;;;1.23;;
64063;SDS011;50314;50.618;10.642;2023-02-28T12:33:31;1.60;;;1.13;;
64063;SDS011;50314;50.618;10.642;2023-02-28T12:35:58;1.60;;;1.02;;
64063;SDS011;50314;50.618;10.642;2023-02-28T12:38:28;1.65;;;1.08;;
64063;SDS011;50314;50.618;10.642;2023-02-28T12:41:03;1.50;;;1.10;;
64063;SDS011;50314;50.618;10.642;2023-02-28T12:43:38;1.85;;;1.17;;
64063;SDS011;50314;50.618;10.642;2023-02-28T12:46:17;2.20;;;1.20;;
64063;SDS011;50314;50.618;10.642;2023-02-28T12:49:10;2.08;;;1.25;;
64063;SDS011;50314;50.618;10.642;2023-02-28T12:51:40;2.25;;;1.50;;
64063;SDS011;50314;50.618;10.642;2023-02-28T12:59:37;2.88;;;1.40;;
64063;SDS011;50314;50.618;10.642;2023-02-28T13:04:45;1.65;;;1.20;;
64063;SDS011;50314;50.618;10.642;2023-02-28T13:09:53;2.15;;;1.30;;
64063;SDS011;50314;50.618;10.642;2023-02-28T13:12:20;1.58;;;1.00;;
64063;SDS011;50314;50.618;10.642;2023-02-28T13:14:47;1.58;;;1.10;;
64063;SDS011;50314;50.618;10.642;2023-02-28T13:17:21;2.63;;;1.25;;
64063;SDS011;50314;50.618;10.642;2023-02-28T13:22:20;2.13;;;1.40;;
64063;SDS011;50314;50.618;10.642;2023-02-28T13:27:59;2.35;;;1.48;;
64063;SDS011;50314;50.618;10.642;2023-02-28T13:38:43;4.45;;;1.35;;
64063;SDS011;50314;50.618;10.642;2023-02-28T13:41:40;2.75;;;1.42;;
64063;SDS011;50314;50.618;10.642;2023-02-28T13:44:10;2.00;;;1.30;;
64063;SDS011;50314;50.618;10.642;2023-02-28T13:54:54;2.17;;;1.38;;
64063;SDS011;50314;50.618;10.642;2023-02-28T14:00:19;2.00;;;1.55;;
64063;SDS011;50314;50.618;10.642;2023-02-28T14:06:07;3.30;;;1.65;;
64063;SDS011;50314;50.618;10.642;2023-02-28T14:08:55;2.20;;;1.23;;
64063;SDS011;50314;50.618;10.642;2023-02-28T14:11:34;9.00;;;1.73;;
64063;SDS011;50314;50.618;10.642;2023-02-28T14:14:02;2.22;;;1.38;;
64063;SDS011;50314;50.618;10.642;2023-02-28T14:16:36;2.67;;;1.40;;
64063;SDS011;50314;50.618;10.642;2023-02-28T14:19:24;2.10;;;1.40;;
64063;SDS011;50314;50.618;10.642;2023-02-28T14:24:51;2.42;;;1.40;;
64063;SDS011;50314;50.618;10.642;2023-02-28T14:27:38;3.72;;;2.13;;
64063;SDS011;50314;50.618;10.642;2023-02-28T14:32:51;4.80;;;3.20;;
64063;SDS011;50314;50.618;10.642;2023-02-28T14:38:05;4.40;;;2.60;;
64063;SDS011;50314;50.618;10.642;2023-02-28T14:40:33;3.63;;;2.67;;
64063;SDS011;50314;50.618;10.642;2023-02-28T14:43:04;4.93;;;2.63;;
64063;SDS011;50314;50.618;10.642;2023-02-28T14:45:32;3.75;;;2.88;;
64063;SDS011;50314;50.618;10.642;2023-02-28T14:48:00;3.72;;;2.60;;
64063;SDS011;50314;50.618;10.642;2023-02-28T14:50:31;3.92;;;2.58;;
64063;SDS011;50314;50.618;10.642;2023-02-28T14:52:59;3.75;;;2.33;;
64063;SDS011;50314;50.618;10.642;2023-02-28T14:55:28;3.95;;;2.50;;
64063;SDS011;50314;50.618;10.642;2023-02-28T14:57:57;3.72;;;2.40;;
64063;SDS011;50314;50.618;10.642;2023-02-28T15:00:33;3.25;;;2.17;;
64063;SDS011;50314;50.618;10.642;2023-02-28T15:03:17;4.13;;;2.70;;
64063;SDS011;50314;50.618;10.642;2023-02-28T15:05:52;3.78;;;2.15;;
64063;SDS011;50314;50.618;10.642;2023-02-28T15:08:19;3.33;;;2.20;;
64063;SDS011;50314;50.618;10.642;2023-02-28T15:10:52;3.55;;;2.50;;
64063;SDS011;50314;50.618;10.642;2023-02-28T15:13:29;2.75;;;2.17;;
64063;SDS011;50314;50.618;10.642;2023-02-28T15:16:03;3.08;;;2.13;;
64063;SDS011;50314;50.618;10.642;2023-02-28T15:24:00;3.65;;;2.30;;
64063;SDS011;50314;50.618;10.642;2023-02-28T15:26:32;3.97;;;2.30;;
64063;SDS011;50314;50.618;10.642;2023-02-28T15:29:10;4.22;;;2.45;;
64063;SDS011;50314;50.618;10.642;2023-02-28T15:31:44;3.65;;;2.80;;
64063;SDS011;50314;50.618;10.642;2023-02-28T15:34:20;2.75;;;2.10;;
64063;SDS011;50314;50.618;10.642;2023-02-28T15:36:47;3.15;;;2.00;;
64063;SDS011;50314;50.618;10.642;2023-02-28T15:39:18;3.05;;;2.15;;
64063;SDS011;50314;50.618;10.642;2023-02-28T15:41:48;3.08;;;2.20;;
64063;SDS011;50314;50.618;10.642;2023-02-28T15:44:23;3.80;;;2.10;;
64063;SDS011;50314;50.618;10.642;2023-02-28T15:50:00;3.22;;;1.83;;
64063;SDS011;50314;50.618;10.642;2023-02-28T15:52:29;4.50;;;2.35;;
64063;SDS011;50314;50.618;10.642;2023-02-28T15:55:08;4.03;;;2.17;;
64063;SDS011;50314;50.618;10.642;2023-02-28T15:57:56;4.35;;;2.42;;
64063;SDS011;50314;50.618;10.642;2023-02-28T16:00:26;4.90;;;2.20;;
64063;SDS011;50314;50.618;10.642;2023-02-28T16:02:53;4.30;;;1.95;;
64063;SDS011;50314;50.618;10.642;2023-02-28T16:05:24;3.50;;;2.33;;
64063;SDS011;50314;50.618;10.642;2023-02-28T16:08:17;4.13;;;2.70;;
64063;SDS011;50314;50.618;10.642;2023-02-28T16:10:42;5.28;;;2.97;;
64063;SDS011;50314;50.618;10.642;2023-02-28T16:13:08;4.88;;;2.50;;
64063;SDS011;50314;50.618;10.642;2023-02-28T16:15:43;4.28;;;2.47;;
64063;SDS011;50314;50.618;10.642;2023-02-28T16:18:12;5.20;;;2.35;;
64063;SDS011;50314;50.618;10.642;2023-02-28T16:20:38;4.60;;;2.15;;
64063;SDS011;50314;50.618;10.642;2023-02-28T16:23:04;5.28;;;2.20;;
64063;SDS011;50314;50.618;10.642;2023-02-28T16:25:41;4.22;;;2.63;;
64063;SDS011;50314;50.618;10.642;2023-02-28T16:28:18;4.38;;;2.33;;
64063;SDS011;50314;50.618;10.642;2023-02-28T16:30:46;8.48;;;2.40;;
64063;SDS011;50314;50.618;10.642;2023-02-28T16:33:12;4.38;;;2.40;;
64063;SDS011;50314;50.618;10.642;2023-02-28T16:35:37;4.65;;;2.22;;
64063;SDS011;50314;50.618;10.642;2023-02-28T16:38:03;3.78;;;2.63;;
64063;SDS011;50314;50.618;10.642;2023-02-28T16:40:29;3.15;;;2.00;;
64063;SDS011;50314;50.618;10.642;2023-02-28T16:42:59;3.70;;;2.10;;
64063;SDS011;50314;50.618;10.642;2023-02-28T16:45:27;3.50;;;2.50;;
64063;SDS011;50314;50.618;10.642;2023-02-28T16:47:54;2.83;;;1.90;;
64063;SDS011;50314;50.618;10.642;2023-02-28T16:50:21;3.05;;;2.03;;
64063;SDS011;50314;50.618;10.642;2023-02-28T16:52:49;3.17;;;2.03;;
64063;SDS011;50314;50.618;10.642;2023-02-28T16:55:17;3.20;;;1.85;;
64063;SDS011;50314;50.618;10.642;2023-02-28T16:57:44;3.38;;;2.20;;
64063;SDS011;50314;50.618;10.642;2023-02-28T17:00:15;4.80;;;2.55;;
64063;SDS011;50314;50.618;10.642;2023-02-28T17:02:40;4.10;;;2.30;;
64063;SDS011;50314;50.618;10.642;2023-02-28T17:05:06;5.47;;;2.58;;
64063;SDS011;50314;50.618;10.642;2023-02-28T17:07:32;4.40;;;2.20;;
64063;SDS011;50314;50.618;10.642;2023-02-28T17:09:58;3.13;;;1.88;;
64063;SDS011;50314;50.618;10.642;2023-02-28T17:12:24;2.97;;;2.03;;
64063;SDS011;50314;50.618;10.642;2023-02-28T17:14:49;3.05;;;1.80;;